This is the latest recevied weather packets stored in our database for station/object KG7KID-3. If no packets are shown the sender has not sent any weather packets the latest 10 day(s).
| Time | Temp. | Humidity | Pressure | Rain* | Wind** | Luminosity | Snow |
|---|---|---|---|---|---|---|---|
| 1787796345 | - | - | 887.2 hPa | 0 mm | - | - | - |
| 1787796045 | 34.44° C | - | 887.3 hPa | 0 mm | - | - | - |
| 1787795445 | 34.44° C | 23% | 887.4 hPa | 0 mm | - | - | - |
| 1787795147 | 35° C | 23% | 887.3 hPa | 0 mm | - | - | - |
| 1787794845 | 34.44° C | 23% | 887.4 hPa | 0 mm | - | - | - |
| 1787792444 | 37.78° C | 20% | 887.1 hPa | 0 mm | - | - | - |
| 1787791545 | 38.89° C | 18% | 886.5 hPa | 0 mm | - | - | - |
| 1787788845 | 41.67° C | 16% | 886.3 hPa | 0 mm | - | - | - |
| 1787788544 | 41.67° C | 16% | 886.2 hPa | 0 mm | - | - | - |
| 1787788244 | 41.67° C | 15% | 886.1 hPa | 0 mm | - | - | - |
| 1787788097 | 42.22° C | 15% | 886.1 hPa | 0 mm | - | - | - |
| 1787787944 | 42.22° C | 15% | 886.1 hPa | 0 mm | - | - | - |
| 1787787645 | 42.22° C | 15% | 886.1 hPa | 0 mm | - | - | - |
| 1787787045 | 42.22° C | 14% | 885.9 hPa | 0 mm | - | - | - |
| 1787785935 | 42.22° C | 15% | 885.9 hPa | 0 mm | - | - | - |
| 1787785845 | 42.78° C | 15% | 885.9 hPa | 0 mm | - | - | - |
| 1787785545 | 42.22° C | 15% | 885.9 hPa | 0 mm | - | - | - |
| 1787785245 | 42.22° C | 14% | 885.9 hPa | 0 mm | - | - | - |
| 1787784945 | 41.67° C | 12% | 886 hPa | 0 mm | - | - | - |
| 1787784344 | 41.11° C | 11% | 886.1 hPa | 0 mm | - | - | - |
| 1787784045 | 40.56° C | 13% | 886.2 hPa | 0 mm | - | - | - |
| 1787783952 | 40.56° C | 12% | 886.1 hPa | 0 mm | - | - | - |
| 1787783746 | 40.56° C | 12% | 886.1 hPa | 0 mm | - | - | - |
| 1787783444 | 40° C | 12% | 886.2 hPa | 0 mm | - | - | - |
| 1787783145 | 39.44° C | 12% | 886.2 hPa | 0 mm | - | - | - |
* Rain latest hour (hover to see other rain measurements)
** Current wind speed in m/s (hover to see current wind gust speed)